Dream Diva — 3EKW6 — position and weather

sailwx.info

Track history (hours):
 
Tides and Currents Weather Stations Pressure Air Temp Water Temp Dewpoint Dewpoint Depression Visibility Wind Speed Wind Dir Waves Ship Positions

Dream Diva

Last reported at 2017-Jul-20 09:45 UTC. Time now 2017-Aug-18 14:38 UTC.
Position N 34°52' E 139°43'.
Warning: this ship's position is 29 days out of date.

Length 186 m; draft 7.5 m.

Type: Cargo ship. MMSI: 372856000.

Date/timePositionNaut miles runAvg speedWind from/ knotsBaromVisibWave heightAir tempDewpointWater temp
2017-Jul-20 09:45N 34°52' E 139°43'519.3
2017-Jul-20 09:30N 34°56' E 139°41'917.6
2017-Jul-20 09:00N 35°05' E 139°42'714.0
2017-Jul-20 08:30N 35°11' E 139°46'611.2
2017-Jul-20 08:00N 35°17' E 139°45'612.7
2017-Jul-20 07:30N 35°22' E 139°42'5 8.9
2017-Jul-20 06:58N 35°27' E 139°41'0 0.2
2017-Jul-20 06:29N 35°27' E 139°41'0 0.1
2017-Jul-20 05:58N 35°27' E 139°41'0 0.0
2017-Jul-20 05:29N 35°27' E 139°41'0 0.1
2017-Jul-20 04:58N 35°27' E 139°41'0 0.0
2017-Jul-20 04:28N 35°27' E 139°41'0 0.1
2017-Jul-20 03:58N 35°27' E 139°41'0 0.0
2017-Jul-20 03:28N 35°27' E 139°41'0 0.0
2017-Jul-20 02:58N 35°27' E 139°41'0 0.0
2017-Jul-20 02:28N 35°27' E 139°41'0 0.0
2017-Jul-20 01:58N 35°27' E 139°41'0 0.0
2017-Jul-20 01:29N 35°27' E 139°41'0 0.0
2017-Jul-20 00:59N 35°27' E 139°41'0 0.0
2017-Jul-20 00:29N 35°27' E 139°41'0 0.1
2017-Jul-19 23:58N 35°27' E 139°41'0 0.0
2017-Jul-19 23:28N 35°27' E 139°41'0 0.1
2017-Jul-19 22:58N 35°27' E 139°41'0 0.0
2017-Jul-19 22:29N 35°27' E 139°41'0 0.0
2017-Jul-19 21:58N 35°27' E 139°41'0 0.8
2017-Jul-19 21:31N 35°27' E 139°41'3 6.2
2017-Jul-19 21:00N 35°24' E 139°43'611.3
2017-Jul-19 20:30N 35°18' E 139°44'510.5
2017-Jul-19 20:00N 35°14' E 139°47'510.0
2017-Jul-19 19:30N 35°09' E 139°46'4 7.6
2017-Jul-19 19:00N 35°05' E 139°45'5 9.8
2017-Jul-19 18:30N 35°01' E 139°41'611.3
2017-Jul-19 18:00N 34°59' E 139°35'713.7
2017-Jul-19 17:30N 34°55' E 139°28'230 7.9
2017-Jul-18 12:30N 34°01' E 134°57'816.4
2017-Jul-18 12:00N 34°09' E 134°57'713.0
2017-Jul-18 11:27N 34°16' E 134°58'716.3
2017-Jul-18 11:01N 34°23' E 135°01'918.4
2017-Jul-18 10:30N 34°28' E 135°11'816.4
2017-Jul-18 10:00N 34°32' E 135°20'3 6.7
2017-Jul-18 09:30N 34°32' E 135°24'0 0.0
2017-Jul-18 02:02N 34°32' E 135°24'0 0.0
2017-Jul-18 01:32N 34°32' E 135°24'0 0.0
2017-Jul-18 01:20N 34°32' E 135°24'0 0.0
2017-Jul-17 22:47N 34°32' E 135°24'0 0.3
2017-Jul-17 22:30N 34°32' E 135°24'3 6.1
2017-Jul-17 22:00N 34°33' E 135°21'5 9.7
2017-Jul-17 21:30N 34°31' E 135°15'714.5
2017-Jul-17 21:00N 34°26' E 135°09'917.7
2017-Jul-17 20:30N 34°20' E 135°01'714.8
2017-Jul-17 20:00N 34°12' E 134°59'510.7
2017-Jul-17 19:30N 34°07' E 134°59'4 8.5
2017-Jul-17 19:00N 34°03' E 134°59'5 9.9
2017-Jul-17 18:30N 33°58' E 134°58'2 4.8
2017-Jul-17 18:00N 33°56' E 134°59'2 4.1
2017-Jul-17 17:29N 33°53' E 134°59'  
Track history (hours):
 
Tides and Currents Weather Stations Pressure Air Temp Water Temp Dewpoint Dewpoint Depression Visibility Wind Speed Wind Dir Waves Ship Positions

Dream Diva

Last reported at 2017-Jul-20 09:45 UTC. Time now 2017-Aug-18 14:38 UTC.
Position N 34°52' E 139°43'.
Warning: this ship's position is 29 days out of date.

Length 186 m; draft 7.5 m.

Type: Cargo ship. MMSI: 372856000.

Date/timePositionNaut miles runAvg speedWind from/ knotsBaromVisibWave heightAir tempDewpointWater temp
2017-Jul-20 09:45N 34°52' E 139°43'519.3
2017-Jul-20 09:30N 34°56' E 139°41'917.6
2017-Jul-20 09:00N 35°05' E 139°42'714.0
2017-Jul-20 08:30N 35°11' E 139°46'611.2
2017-Jul-20 08:00N 35°17' E 139°45'612.7
2017-Jul-20 07:30N 35°22' E 139°42'5 8.9
2017-Jul-20 06:58N 35°27' E 139°41'0 0.2
2017-Jul-20 06:29N 35°27' E 139°41'0 0.1
2017-Jul-20 05:58N 35°27' E 139°41'0 0.0
2017-Jul-20 05:29N 35°27' E 139°41'0 0.1
2017-Jul-20 04:58N 35°27' E 139°41'0 0.0
2017-Jul-20 04:28N 35°27' E 139°41'0 0.1
2017-Jul-20 03:58N 35°27' E 139°41'0 0.0
2017-Jul-20 03:28N 35°27' E 139°41'0 0.0
2017-Jul-20 02:58N 35°27' E 139°41'0 0.0
2017-Jul-20 02:28N 35°27' E 139°41'0 0.0
2017-Jul-20 01:58N 35°27' E 139°41'0 0.0
2017-Jul-20 01:29N 35°27' E 139°41'0 0.0
2017-Jul-20 00:59N 35°27' E 139°41'0 0.0
2017-Jul-20 00:29N 35°27' E 139°41'0 0.1
2017-Jul-19 23:58N 35°27' E 139°41'0 0.0
2017-Jul-19 23:28N 35°27' E 139°41'0 0.1
2017-Jul-19 22:58N 35°27' E 139°41'0 0.0
2017-Jul-19 22:29N 35°27' E 139°41'0 0.0
2017-Jul-19 21:58N 35°27' E 139°41'0 0.8
2017-Jul-19 21:31N 35°27' E 139°41'3 6.2
2017-Jul-19 21:00N 35°24' E 139°43'611.3
2017-Jul-19 20:30N 35°18' E 139°44'510.5
2017-Jul-19 20:00N 35°14' E 139°47'510.0
2017-Jul-19 19:30N 35°09' E 139°46'4 7.6
2017-Jul-19 19:00N 35°05' E 139°45'5 9.8
2017-Jul-19 18:30N 35°01' E 139°41'611.3
2017-Jul-19 18:00N 34°59' E 139°35'713.7
2017-Jul-19 17:30N 34°55' E 139°28'230 7.9
2017-Jul-18 12:30N 34°01' E 134°57'816.4
2017-Jul-18 12:00N 34°09' E 134°57'713.0
2017-Jul-18 11:27N 34°16' E 134°58'716.3
2017-Jul-18 11:01N 34°23' E 135°01'918.4
2017-Jul-18 10:30N 34°28' E 135°11'816.4
2017-Jul-18 10:00N 34°32' E 135°20'3 6.7
2017-Jul-18 09:30N 34°32' E 135°24'0 0.0
2017-Jul-18 02:02N 34°32' E 135°24'0 0.0
2017-Jul-18 01:32N 34°32' E 135°24'0 0.0
2017-Jul-18 01:20N 34°32' E 135°24'0 0.0
2017-Jul-17 22:47N 34°32' E 135°24'0 0.3
2017-Jul-17 22:30N 34°32' E 135°24'3 6.1
2017-Jul-17 22:00N 34°33' E 135°21'5 9.7
2017-Jul-17 21:30N 34°31' E 135°15'714.5
2017-Jul-17 21:00N 34°26' E 135°09'917.7
2017-Jul-17 20:30N 34°20' E 135°01'714.8
2017-Jul-17 20:00N 34°12' E 134°59'510.7
2017-Jul-17 19:30N 34°07' E 134°59'4 8.5
2017-Jul-17 19:00N 34°03' E 134°59'5 9.9
2017-Jul-17 18:30N 33°58' E 134°58'2 4.8
2017-Jul-17 18:00N 33°56' E 134°59'2 4.1
2017-Jul-17 17:29N 33°53' E 134°59'  

Dump ship's entire track history